Air Resources Laboratory banner image
Air Resources Laboratory web site National Oceanic and Atmospheric Administration (NOAA)

tx metar


K11R 180055Z AUTO 00000KT 7SM OVC004 11/11 A3010 RMK AO2 T01100106=
K6R6 180053Z AUTO 00000KT 07/06 A3001 RMK AO1 SLP158 T00720056=
KABI 180052Z 03005KT 10SM CLR 11/03 A3004 RMK AO2 SLP169 T01110033=
KACT 180051Z 06003KT 6SM BR CLR 07/07 A3008 RMK AO2 SLP184 T00720067=
KADS 180047Z 13003KT 10SM BKN012 09/07 A3007=
KAFW 180053Z 10003KT 8SM OVC250 07/07 A3006 RMK AO2 SLP183 T00720067 $=
KALI 180053Z AUTO 00000KT 8SM OVC005 12/11 A3008 RMK AO2 SLP184 T01170106=
KAMA 180053Z 08003KT 10SM CLR 04/M03 A3004 RMK AO2 SLP177 T00441033=
KATT 180051Z AUTO VRB04KT 7SM OVC007 11/09 A3008 RMK AO2 SLP188 T01060094 $=
KAUS 180053Z 14006KT 8SM OVC006 11/09 A3007 RMK AO2 SLP186 T01060094 $=
KBAZ 180051Z 20004KT 6SM BR OVC004 11/09 A3007 RMK AO2 SLP181 T01060094=
KBGD 180051Z AUTO 07004KT 10SM CLR 06/M02 A3003 RMK AO2 SLP176 T00561022=
KBMQ 180053Z AUTO 05003KT 10SM CLR 12/10 A3007 RMK AO2 SLP179 T01170100=
KBPT 180053Z 33003KT 9SM SCT120 14/13 A3007 RMK AO2 SLP182 T01440133=
KBRO 180053Z 36003KT 10SM BKN019 OVC033 17/14 A3007 RMK AO2 SLP180 T01670144=
KCDS 180053Z AUTO 14003KT 10SM CLR 07/M03 A3005 RMK AO2 SLP178 T00671033=
KCLL 180053Z 00000KT 9SM OVC006 11/09 A3009 RMK AO2 SLP190 T01060094=
KCNW 180055Z 00000KT 3SM BR SKC 07/07 A3008=
KCOT 180053Z AUTO 21004KT 7SM OVC004 10/09 A3008 RMK AO2 SLP185 T01000089=
KCRP 180051Z 34003KT 8SM OVC007 13/12 A3008 RMK AO2 SLP185 T01280122 $=
KCRS 180053Z AUTO 04003KT 7SM FEW012 08/07 A3010 RMK AO2 SLP194 T00780072=
KCXO 180053Z 32004KT 6SM BR CLR 09/09 A3008 RMK AO2 SLP187 T00890089=
KDAL 180053Z 10005KT 10SM FEW009 SCT012 OVC250 10/08 A3007 RMK AO2 SLP180
 T01000078=
KDFW 180053Z 00000KT 6SM BR FEW011 OVC250 09/07 A3005 RMK AO2 SLP174 T00890072
 $=
KDHT 180053Z AUTO 14008KT 10SM CLR 01/M04 A3002 RMK AO2 SLP175 T00061039=
KDLF 180055Z 22003KT 10SM OVC008 10/08 A3005 RMK AO2A SLP177 T00950078=
KDRT 180053Z AUTO 14003KT 6SM BR OVC009 09/08 A3006 RMK AO2 SLP174 T00890078 $=
KDTO 180053Z 00000KT 10SM CLR 08/07 A3006 RMK AO2 SLP179 T00780067=
KDWH 180053Z 35003KT 9SM CLR 12/12 A3008 RMK AO2 SLP186 T01220117=
KDYS 180056Z AUTO 04007KT 10SM CLR 10/02 A3003 RMK AO2 SLP166 T01030024 $=
KEFD 180050Z 10004KT 10SM BKN040 BKN250 15/14 A3008=
KELP 180051Z 35004KT 8SM -RA BKN045 OVC060 09/06 A3005 RMK AO2 RAB29 SLP157
 P0001 T00890056=
KERV 180055Z AUTO 14005KT 10SM CLR 11/08 A3005 RMK AO2 T01060082=
KFST 180053Z AUTO 13007KT 10SM CLR 14/02 A2999 RMK AO2 SLP130 T01440017=
KFTW 180053Z 09004KT 10SM CLR 09/08 A3006 RMK AO2 SLP178 T00940078 $=
KFWS 180050Z 00000KT 7SM CLR 08/07 A3008=
KGDP 180051Z AUTO 27008KT 10SM CLR 11/M01 A3004 RMK AO2 SLP150 T01061006=
KGGG 180053Z 12005KT 2SM BR OVC002 09/09 A3009 RMK AO2 SLP192 T00940094=
KGKY 180053Z 10003KT 8SM SCT010 09/08 A3007 RMK AO2 SLP181 T00890078 $=
KGLS 180052Z AUTO 11004KT 10SM CLR 16/14 A3008 RMK AO2 SLP184 T01560139 $=
KGPM 180055Z AUTO 00000KT 10SM SCT009 09/09 A3008 RMK AO2 T00870087=
KGRK 180058Z AUTO 14003KT 10SM CLR 10/09 A3005 RMK AO2 SLP178 T00970089=
KGTU 180056Z 10003KT 6SM BR CLR 10/09 A3009 RMK AO2 SLP191 T01000094=
KGVT 180050Z AUTO 00000KT 10SM OVC008 10/08 A3009 RMK AO2=
KHDO 180051Z AUTO 20004KT 8SM OVC004 11/09 A3008 RMK AO2 SLP180 T01110094=
KHHF 180055Z AUTO 23005KT 10SM CLR 01/M02 A3004 RMK AO2 T00081021=
KHLR 180058Z AUTO 14003KT 6SM BR CLR 09/08 A3003 RMK AO2 SLP170 T00880082=
KHOU 180053Z 00000KT 10SM SCT045 BKN250 16/13 A3007 RMK AO2 SLP188 T01560133=
KHRL 180052Z 36004KT 10SM OVC015 16/14 A3006 RMK AO2 SLP177 T01610144=
KHYI 180056Z AUTO 17005KT 6SM BR OVC005 10/09 A3009 RMK AO2 SLP185 T01000094 $=
KIAH 180053Z 06004KT 10SM FEW010 FEW040 BKN240 13/12 A3007 RMK AO2 SLP185
 T01330122=
KILE 180056Z AUTO 13004KT 8SM CLR 09/09 A3006 RMK AO2 SLP202 T00940089=
KINK 180053Z AUTO 12007KT 10SM CLR 12/02 A2996 RMK AO2 SLP138 T01220017 $=
KJCT 180051Z AUTO 00000KT 10SM CLR 12/07 A3003 RMK AO2 SLP153 T01220072=
KLBB 180053Z 12003KT 10SM FEW260 SCT300 08/M04 A3004 RMK AO2 SLP170 T00781044=
KLBX 180053Z AUTO 00000KT 10SM OVC035 16/13 A3008 RMK AO2 SLP185 T01560128=
KLFK 180053Z AUTO 00000KT 8SM OVC006 10/09 A3010 RMK AO2 CIG 004V008 SLP191
 T01000094=
KLRD 180056Z 10SM OVC006 11/09 A3009 RMK AO2 SLP200 T01060094 $=
KLVJ 180053Z AUTO 15003KT 10SM CLR 16/14 A3009 RMK AO2 SLP187 T01560139=
KMAF 180053Z 10007KT 10SM CLR 12/03 A3000 RMK AO2 SLP147 T01170033=
KMFE 180053Z 34006KT 10SM OVC020 15/12 A3008 RMK AO2 SLP184 T01500117=
KMWL 180053Z AUTO 13005KT 10SM CLR 09/07 A3004 RMK AO2 SLP170 T00890072=
KNFW 180052Z AUTO 12004KT 10SM CLR 09/07 A3006 RMK AO2 SLP164 T00940067 $=
KNGP 180056Z AUTO 36006KT 5SM BR OVC004 14/13 A3007 RMK AO2 SLP181 T01390128
 VISNO $=
KNOG 180056Z AUTO 00000KT 8SM OVC005 12/12 A3009 RMK AO2 SLP170 T01170117 PWINO
 $=
KNQI 180056Z 35004KT 3SM BR OVC004 12/12 A3008 RMK AO2 SLP182 T01220122 $=
KOCH 180056Z AUTO 13003KT 2 1/2SM BR OVC002 11/10 A3011 RMK AO2 SLP201
 T01060100=
KODO 180053Z AUTO 14007KT 10SM CLR 12/01 A3000 RMK AO2 SLP147 T01220011 $=
KPEQ 180055Z AUTO 06006KT 10SM CLR 13/03 A2996 RMK AO2 T01280030=
KPIL 180053Z AUTO 32006KT 8SM OVC019 16/14 A3005 RMK AO2 SLP176 T01610144 $=
KPPA 180055Z AUTO 03003KT 10SM CLR 05/M01 A3003 RMK AO2 T00471015=
KPRX 180056Z AUTO 12003KT 6SM BR OVC010 08/08 A3010 RMK AO2 SLP213 T00830078=
KPSX 180053Z AUTO 33004KT 10SM OVC030 14/13 A3009 RMK AO2 SLP187 T01390133=
KPVW 180055Z AUTO 16004KT 10SM CLR 05/M04 A3004 RMK AO2 T00471044=
KPWG 180056Z AUTO 13005KT 9SM CLR 08/08 A3008 RMK AO2 SLP203 T00830078=
KPYX 180055Z AUTO 20005KT 10SM CLR 02/M03 A3002 RMK AO2 T00161032=
KRBD 180053Z 13006KT 7SM BKN009 09/08 A3006 RMK AO2 SLP177 T00890083 $=
KRKP 180053Z AUTO 01004KT 7SM OVC006 13/12 A3007 RMK AO2 SLP185 T01280117=
KRND 180056Z AUTO 15005KT 6SM BR OVC003 10/09 A3007 RMK AO2 SLP184 T00990091 $=
KSAT 180051Z 17004KT 5SM BR OVC005 11/09 A3008 RMK AO2 SLP177 T01060089 $=
KSEP 180055Z AUTO 00000KT 10SM CLR 11/08 A3007 RMK AO2 T01120080=
KSGR 180053Z 00000KT 10SM CLR 14/12 A3007 RMK AO2 SLP185 T01390122=
KSJT 180051Z 00000KT 10SM CLR 12/06 A3002 RMK AO2 SLP167 T01220056=
KSKF 180056Z AUTO 16005KT 7SM OVC003 10/09 A3006 RMK AO2 SLP181 T01000091 $=
KSPS 180052Z AUTO 03005KT 10SM CLR 08/02 A3005 RMK AO2 SLP176 T00780022=
KSSF 180053Z 17003KT 6SM BR OVC004 11/09 A3007 RMK AO2 SLP184 T01060094=
KTKI 180053Z 11004KT 10SM OVC011 09/08 A3007 RMK AO2 SLP193 T00940078=
KTPL 180051Z AUTO 12005KT 6SM BR CLR 08/08 A3007 RMK AO2 SLP199 T00830078=
KTRL 180053Z AUTO 00000KT 10SM OVC010 10/07 A3009 RMK AO2 SLP188 T01000072=
KTYR 180053Z 00000KT 8SM CLR 08/08 A3009 RMK AO2 SLP187 T00830083=
KUTS 180053Z AUTO 06003KT 9SM OVC006 11/10 A3008 RMK AO2 CIG 003V008 SLP187
 T01110100=
KVCT 180051Z 00000KT 10SM OVC007 13/11 A3009 RMK AO2 SLP187 T01280111=